Report METAR

 

KSJC - San Jose, California, USA
Distance from station: NE 14km
Dati ricevuti: 18/07/2024 03:53
Sereno
Sereno
 Vento da NO
Vento: NO 20 km/h
Temperatura: 24°C
P.to Rugiada: 14°C
Umidità: 54%
Barometro: 1015.2 hPa
Nuvole: Sereno
Visibility: 16 km
2024/07/18 01:53 KSJC 180153Z 31011KT 10SM CLR 24/14 A2998 RMK AO2 SLP150 T02390139
KNUQ - Moffett Nas/Mtn, California, USA
Distance from station: N 14km
Dati ricevuti: 18/07/2024 03:50
Sereno
Sereno
 Vento da N
Vento: N 26 km/h
Temperatura: 20°C
P.to Rugiada: 15°C
Umidità: 73%
Barometro: 1015.2 hPa
Nuvole: Sereno
Visibility: 16 km
2024/07/18 01:50 KNUQ 180150Z AUTO 35014KT 10SM CLR 20/15 A2998 RMK AO2
 
KPAO - Palo Alto, California, USA
Distance from station: NNO 23km
Dati ricevuti: 18/07/2024 03:47
Sereno
Sereno
 Vento da NNO
Vento: NNO 22 km/h
Temperatura: 21°C
P.to Rugiada: 15°C
Umidità: 69%
Barometro: 1015.2 hPa
Nuvole: Sereno
Visibility: 16 km
2024/07/18 01:47 KPAO 180147Z 33012KT 10SM SKC 21/15 A2998
KRHV - San Jose/Reid, California, USA
Distance from station: ENE 19km
Dati ricevuti: 18/07/2024 03:47
Sereno
Sereno
 Vento da ONO
Vento: ONO 19 km/h
Temperatura: 26°C
P.to Rugiada: 14°C
Umidità: 48%
Barometro: 1015.2 hPa
Nuvole: Sereno
Visibility: 16 km
2024/07/18 01:47 KRHV 180147Z 29010KT 10SM SKC 26/14 A2998
 
KOAK - Oakland, California, USA
Distance from station: NNO 50km
Dati ricevuti: 18/07/2024 03:53
Few Clouds
Few Clouds
 Vento da O
Vento: O 24 km/h
Temperatura: 20°C
P.to Rugiada: 14°C
Umidità: 69%
Barometro: 1015.6 hPa
Nuvole: Few Clouds
Visibility: 16 km
Cloud details: Few Clouds 366 m
2024/07/18 01:53 KOAK 180153Z 28013KT 10SM FEW012 20/14 A2999 RMK AO2 SLP156 T02000144
KSQL - San Carlos Airpo, California, USA
Distance from station: NO 34km
Dati ricevuti: 18/07/2024 03:47
Sereno
Sereno
 Vento da NO
Vento: NO 22 km/h
Temperatura: 24°C
P.to Rugiada: 13°C
Umidità: 50%
Barometro: 1015.2 hPa
Nuvole: Sereno
Visibility: 16 km
2024/07/18 01:47 KSQL 180147Z 31012KT 10SM CLR 24/13 A2998
 
KSFO - San Francisco, California, USA
Distance from station: NO 49km
Dati ricevuti: 18/07/2024 03:56
Few Clouds
Few Clouds
 Vento da O
Vento: O 43 km/h, Raffica: 56 km/h
Temperatura: 17°C
P.to Rugiada: 13°C
Umidità: 77%
Barometro: 1015.2 hPa
Nuvole: Few Clouds
Visibility: 16 km
Cloud details: Few Clouds 213 m
2024/07/18 01:56 KSFO 180156Z 27023G30KT 10SM FEW007 17/13 A2998 RMK AO2 PK WND 27030/0154 SLP153 T01720128
KE16 - San Martin, California, USA
Distance from station: ESE 43km
Dati ricevuti: 18/07/2024 03:55
Sereno
Sereno
 Vento da NO
Vento: NO 24 km/h, Raffica: 39 km/h
Temperatura: 28°C
P.to Rugiada: 10°C
Umidità: 32%
Barometro: 1014.6 hPa
Nuvole: Sereno
Visibility: 16 km
2024/07/18 01:55 KE16 180155Z AUTO 32013G21KT 10SM CLR 28/10 A2996 RMK AO2 PWINO PNO
 
KWVI - Watsonville, California, USA
Distance from station: SSE 44km
Dati ricevuti: 18/07/2024 03:53
Sereno
Sereno
 Vento da S
Vento: S 13 km/h
Temperatura: 21°C
P.to Rugiada: 14°C
Umidità: 64%
Barometro: 1014.9 hPa
Nuvole: Sereno
Visibility: 16 km
2024/07/18 01:53 KWVI 180153Z AUTO 18007KT 10SM CLR 21/14 A2997 RMK AO2 SLP147 T02060139
KHAF - Half Moon Bay, California, USA
Distance from station: ONO 50km
Dati ricevuti: 18/07/2024 04:15
Coperto
Coperto
 Vento da NNO
Vento: NNO 24 km/h
Temperatura: 15°C
P.to Rugiada: 15°C
Umidità: 100%
Barometro: 1016.6 hPa
Nuvole: Coperto
Visibility: 14 km
Cloud details: Coperto 183 m
2024/07/18 02:15 KHAF 180215Z AUTO 33013KT 9SM OVC006 15/15 A3002 RMK AO2
 
KHWD - Hayward, California, USA
Distance from station: N 44km
Dati ricevuti: 18/07/2024 03:54
Sereno
Sereno
 Vento da O
Vento: O 15 km/h
Temperatura: 21°C
P.to Rugiada: 14°C
Umidità: 64%
Barometro: 1015.6 hPa
Nuvole: Sereno
Visibility: 16 km
2024/07/18 01:54 KHWD 180154Z 28008KT 10SM CLR 21/14 A2999 RMK AO2 SLP164 T02060139
KLVK - Livermore, California, USA
Distance from station: NNE 51km
Dati ricevuti: 18/07/2024 03:53
Sereno
Sereno
 Vento da NO
Vento: NO 19 km/h
Temperatura: 27°C
Indice di Calore: 27°C
P.to Rugiada: 13°C
Umidità: 42%
Barometro: 1014.2 hPa
Nuvole: Sereno
Visibility: 16 km
2024/07/18 01:53 KLVK 180153Z 31010KT 10SM CLR 27/13 A2995 RMK AO2 SLP138 T02670128